Time;durP1;ratioP1;P1;durP2;ratioP2;P2;SDS_P1;SDS_P2;PMS_P1;PMS_P2;Temp;Humidity;BMP_temperature;BMP_pressure;BME280_temperature;BME280_humidity;BME280_pressure;Samples;Min_cycle;Max_cycle;Signal;HPM_P1;HPM_P2
2024/03/16 00:01:44;;;;;;;2.90;1.98;;;13.00;99.90;;;;;;4117665;28;20057;-57
2024/03/16 00:03:47;;;;;;;0.85;0.25;;;13.00;99.90;;;;;;4116307;28;20129;-53
2024/03/16 00:05:49;;;;;;;1.92;0.57;;;12.90;99.90;;;;;;4116035;28;20179;-54
2024/03/16 00:07:52;;;;;;;1.15;0.50;;;13.00;99.90;;;;;;4116204;28;20431;-55
2024/03/16 00:09:55;;;;;;;0.93;0.88;;;13.00;99.90;;;;;;4116027;28;20101;-54
2024/03/16 00:11:57;;;;;;;1.92;1.05;;;13.00;99.90;;;;;;4115930;28;20509;-56
2024/03/16 00:14:03;;;;;;;1.08;0.30;;;13.00;99.90;;;;;;4115655;28;20139;-56
2024/03/16 00:16:06;;;;;;;0.90;0.40;;;13.00;99.90;;;;;;4116486;28;20522;-55
2024/03/16 00:18:09;;;;;;;1.70;1.20;;;12.90;99.90;;;;;;4116939;28;20133;-58
2024/03/16 00:20:11;;;;;;;1.08;0.35;;;12.90;99.90;;;;;;4118134;28;20505;-56
2024/03/16 00:22:15;;;;;;;1.13;0.75;;;13.00;99.90;;;;;;4117411;28;20133;-53
2024/03/16 00:24:17;;;;;;;0.70;0.20;;;13.00;99.90;;;;;;4116325;28;20055;-55
2024/03/16 00:26:19;;;;;;;0.13;0.13;;;12.90;99.90;;;;;;4115714;28;20070;-53
2024/03/16 00:28:21;;;;;;;0.35;0.35;;;13.00;99.90;;;;;;4115715;28;20050;-55
2024/03/16 00:30:23;;;;;;;0.28;0.20;;;13.00;99.90;;;;;;4115174;28;20047;-54
2024/03/16 00:32:26;;;;;;;0.40;0.20;;;12.90;99.90;;;;;;4115356;28;20070;-55
2024/03/16 00:34:28;;;;;;;3.40;0.30;;;13.00;99.90;;;;;;4115816;28;20050;-55
2024/03/16 00:36:30;;;;;;;0.47;0.30;;;13.00;99.90;;;;;;4115587;28;20486;-55
2024/03/16 00:38:33;;;;;;;0.40;0.20;;;13.00;99.90;;;;;;4116345;28;20081;-52
2024/03/16 00:40:35;;;;;;;0.10;0.10;;;13.00;99.90;;;;;;4116239;28;20074;-53
2024/03/16 00:42:37;;;;;;;0.28;0.28;;;13.00;99.90;;;;;;4116695;28;20082;-53
2024/03/16 00:44:39;;;;;;;0.43;0.32;;;13.00;99.90;;;;;;4115731;28;20589;-57
2024/03/16 00:46:41;;;;;;;0.20;0.15;;;13.00;99.90;;;;;;4115879;28;20051;-51
2024/03/16 00:48:43;;;;;;;2.22;0.25;;;13.00;99.90;;;;;;4115835;28;20051;-55
2024/03/16 00:50:46;;;;;;;0.30;0.10;;;13.00;99.90;;;;;;4115158;28;20062;-56
2024/03/16 00:52:48;;;;;;;0.55;0.30;;;13.00;99.90;;;;;;4115416;28;20414;-54
2024/03/16 00:54:50;;;;;;;0.10;0.10;;;13.00;99.90;;;;;;4114020;28;20086;-54
2024/03/16 00:56:52;;;;;;;1.75;0.93;;;13.00;99.90;;;;;;4114792;28;20049;-54
2024/03/16 00:58:55;;;;;;;0.20;0.10;;;13.00;99.90;;;;;;4114992;28;20482;-54
2024/03/16 01:00:57;;;;;;;1.30;0.50;;;13.00;99.90;;;;;;4131109;28;20481;-54
2024/03/16 01:02:59;;;;;;;0.63;0.20;;;13.00;99.90;;;;;;4114975;28;20102;-55
2024/03/16 01:05:01;;;;;;;0.10;0.10;;;13.00;99.90;;;;;;4115139;28;20043;-54
2024/03/16 01:07:04;;;;;;;0.57;0.10;;;13.00;99.90;;;;;;4115216;28;20117;-55
2024/03/16 01:09:07;;;;;;;1.90;1.08;;;12.90;99.90;;;;;;4114961;28;20053;-56
2024/03/16 01:11:09;;;;;;;0.35;0.10;;;13.00;99.90;;;;;;4131165;28;20042;-54
2024/03/16 01:13:13;;;;;;;0.03;0.00;;;13.00;99.90;;;;;;4115058;28;20046;-56
2024/03/16 01:15:16;;;;;;;1.02;0.20;;;13.00;99.90;;;;;;4115610;28;20097;-53
2024/03/16 01:17:20;;;;;;;0.43;0.38;;;13.10;99.90;;;;;;4116854;28;20108;-54
2024/03/16 01:19:23;;;;;;;2.50;0.28;;;13.10;99.90;;;;;;4117099;28;20055;-59
2024/03/16 01:21:25;;;;;;;1.20;0.10;;;13.10;99.90;;;;;;4118173;28;20043;-54
2024/03/16 01:23:27;;;;;;;0.20;0.20;;;13.10;99.90;;;;;;4118113;28;20450;-54
2024/03/16 01:25:29;;;;;;;0.22;0.20;;;13.00;99.90;;;;;;4115897;28;20046;-53
2024/03/16 01:27:33;;;;;;;0.13;0.10;;;12.90;99.90;;;;;;4114514;28;20058;-55
2024/03/16 01:29:35;;;;;;;0.52;0.10;;;12.90;99.90;;;;;;4115331;28;20092;-52
2024/03/16 01:31:37;;;;;;;0.10;0.10;;;12.80;99.90;;;;;;4114961;28;20070;-53
2024/03/16 01:33:39;;;;;;;0.25;0.13;;;12.80;99.90;;;;;;4114916;28;20509;-53
2024/03/16 01:35:42;;;;;;;1.88;0.30;;;12.70;99.90;;;;;;4115079;28;20137;-53
2024/03/16 01:37:44;;;;;;;0.13;0.00;;;12.70;99.90;;;;;;4115507;28;20077;-53
2024/03/16 01:39:49;;;;;;;0.10;0.00;;;12.80;99.90;;;;;;4117296;28;20129;-54
2024/03/16 01:41:51;;;;;;;0.22;0.10;;;12.70;99.90;;;;;;4118040;28;20057;-53
2024/03/16 01:43:53;;;;;;;0.25;0.20;;;12.80;99.90;;;;;;4117348;28;20051;-53
2024/03/16 01:45:56;;;;;;;0.00;0.00;;;12.70;99.90;;;;;;4115359;28;20434;-52
2024/03/16 01:48:00;;;;;;;0.55;0.13;;;12.70;99.90;;;;;;4114993;28;20106;-52
2024/03/16 01:50:03;;;;;;;;;;;12.70;99.90;;;;;;4115478;28;20058;-53
2024/03/16 01:52:05;;;;;;;0.00;0.00;;;12.70;99.90;;;;;;4130595;28;19969;-53
2024/03/16 01:54:07;;;;;;;0.17;0.10;;;12.70;99.90;;;;;;4114899;28;20113;-53
2024/03/16 01:56:09;;;;;;;0.20;0.15;;;12.70;99.90;;;;;;4114046;28;20055;-53
2024/03/16 01:58:12;;;;;;;0.00;0.00;;;12.70;99.90;;;;;;4114786;28;20396;-53
2024/03/16 02:00:15;;;;;;;0.03;0.03;;;12.70;99.90;;;;;;4115298;28;20409;-52
2024/03/16 02:02:29;;;;;;;0.00;0.00;;;12.80;99.90;;;;;;4115980;28;20130;-53
2024/03/16 02:04:32;;;;;;;1.23;0.10;;;12.70;99.90;;;;;;4116184;28;20130;-53
2024/03/16 02:06:34;;;;;;;0.10;0.10;;;12.80;99.90;;;;;;4116495;28;20474;-53
2024/03/16 02:08:37;;;;;;;0.00;0.00;;;12.80;99.90;;;;;;4118221;28;20047;-53
2024/03/16 02:10:40;;;;;;;0.03;0.00;;;12.80;99.90;;;;;;4118157;28;20468;-53
2024/03/16 02:12:42;;;;;;;0.15;0.10;;;12.80;99.90;;;;;;4117916;28;20500;-52
2024/03/16 02:14:44;;;;;;;0.00;0.00;;;12.70;99.90;;;;;;4117877;28;20293;-53
2024/03/16 02:16:47;;;;;;;0.10;0.10;;;12.70;99.90;;;;;;4118273;28;20047;-53
2024/03/16 02:18:50;;;;;;;1.75;0.10;;;12.70;99.90;;;;;;4117854;28;20051;-52
2024/03/16 02:20:52;;;;;;;0.20;0.10;;;12.70;99.90;;;;;;4117545;28;20133;-52
2024/03/16 02:22:54;;;;;;;0.15;0.15;;;12.70;99.90;;;;;;4117405;28;20097;-52
2024/03/16 02:24:57;;;;;;;0.85;0.05;;;12.70;99.90;;;;;;4117128;28;20051;-53
2024/03/16 02:27:02;;;;;;;0.17;0.00;;;12.70;99.90;;;;;;4117388;28;20218;-52
2024/03/16 02:29:04;;;;;;;;;;;12.60;99.90;;;;;;4118305;28;20417;-53
2024/03/16 02:31:07;;;;;;;0.00;0.00;;;12.60;99.90;;;;;;4133249;28;19976;-52
2024/03/16 02:33:10;;;;;;;0.35;0.00;;;12.60;99.90;;;;;;4117409;28;20046;-52
2024/03/16 02:35:12;;;;;;;0.30;0.30;;;12.60;99.90;;;;;;4117546;28;20050;-52
2024/03/16 02:37:15;;;;;;;0.43;0.10;;;12.60;99.90;;;;;;4118149;28;20053;-52
2024/03/16 02:39:19;;;;;;;0.00;0.00;;;12.70;99.90;;;;;;4117593;28;20047;-52
2024/03/16 02:41:22;;;;;;;0.10;0.10;;;12.70;99.90;;;;;;4117672;28;20053;-52
2024/03/16 02:43:24;;;;;;;0.10;0.00;;;12.70;99.90;;;;;;4117222;28;20050;-51
2024/03/16 02:45:26;;;;;;;0.70;0.00;;;12.70;99.90;;;;;;4117304;28;20074;-53
2024/03/16 02:47:28;;;;;;;2.78;1.02;;;12.70;99.90;;;;;;4117154;28;20121;-53
2024/03/16 02:49:33;;;;;;;0.00;0.00;;;12.60;99.90;;;;;;4117328;28;20078;-53
2024/03/16 02:51:35;;;;;;;0.68;0.52;;;12.60;99.90;;;;;;4116884;28;20114;-53
2024/03/16 02:53:37;;;;;;;0.20;0.03;;;12.50;99.90;;;;;;4116851;28;20457;-52
2024/03/16 02:55:39;;;;;;;0.05;0.05;;;12.50;99.90;;;;;;4115540;28;20042;-53
2024/03/16 02:57:42;;;;;;;0.20;0.00;;;12.60;99.90;;;;;;4117234;28;20417;-60
2024/03/16 02:59:44;;;;;;;0.25;0.10;;;12.60;99.90;;;;;;4117008;28;20097;-53
2024/03/16 03:01:46;;;;;;;0.00;0.00;;;12.60;99.90;;;;;;4116252;28;20047;-53
2024/03/16 03:03:48;;;;;;;0.03;0.00;;;12.70;99.90;;;;;;4115704;28;20494;-52
2024/03/16 03:05:52;;;;;;;0.00;0.00;;;12.70;99.90;;;;;;4116974;28;20071;-64
2024/03/16 03:07:55;;;;;;;0.15;0.00;;;12.60;99.90;;;;;;4117679;28;20050;-53
2024/03/16 03:09:57;;;;;;;0.30;0.30;;;12.70;99.90;;;;;;4116467;28;20046;-54
2024/03/16 03:11:59;;;;;;;1.48;0.10;;;12.70;99.90;;;;;;4100941;28;20071;-53
2024/03/16 03:14:01;;;;;;;0.35;0.00;;;12.70;99.90;;;;;;4116853;28;20081;-53
2024/03/16 03:16:04;;;;;;;0.00;0.00;;;12.70;99.90;;;;;;4116928;28;20051;-53
2024/03/16 03:18:06;;;;;;;0.03;0.00;;;12.60;99.90;;;;;;4115780;28;20133;-53
2024/03/16 03:20:08;;;;;;;0.00;0.00;;;12.60;99.90;;;;;;4116874;28;20054;-53
2024/03/16 03:22:12;;;;;;;0.00;0.00;;;12.60;99.90;;;;;;4116700;28;20054;-52
2024/03/16 03:24:14;;;;;;;0.10;0.00;;;12.70;99.90;;;;;;4117136;28;20054;-60
2024/03/16 03:26:16;;;;;;;0.00;0.00;;;12.80;99.90;;;;;;4117744;28;20047;-53
2024/03/16 03:28:19;;;;;;;0.00;0.00;;;12.70;99.90;;;;;;4117544;28;20067;-53
2024/03/16 03:30:21;;;;;;;0.00;0.00;;;12.70;99.90;;;;;;4117101;28;20153;-53
2024/03/16 03:32:23;;;;;;;0.00;0.00;;;12.60;99.90;;;;;;4117501;28;20051;-53
2024/03/16 03:34:25;;;;;;;0.00;0.00;;;12.50;99.90;;;;;;4117271;28;20101;-53
2024/03/16 03:36:28;;;;;;;0.00;0.00;;;12.50;99.90;;;;;;4117439;28;20474;-53
2024/03/16 03:38:30;;;;;;;0.00;0.00;;;12.60;99.90;;;;;;4116664;28;20401;-52
2024/03/16 03:40:32;;;;;;;0.00;0.00;;;12.50;99.90;;;;;;4116413;28;20053;-52
2024/03/16 03:42:35;;;;;;;0.00;0.00;;;12.60;99.90;;;;;;4116542;28;20506;-53
2024/03/16 03:44:38;;;;;;;0.00;0.00;;;12.60;99.90;;;;;;4100229;28;20050;-52
2024/03/16 03:46:50;;;;;;;0.90;0.28;;;12.50;99.90;;;;;;4116051;28;20046;-54
2024/03/16 03:49:00;;;;;;;0.43;0.10;;;12.50;99.90;;;;;;4116024;28;20079;-53
2024/03/16 03:51:05;;;;;;;0.00;0.00;;;12.50;99.90;;;;;;4116094;28;20086;-53
2024/03/16 03:53:07;;;;;;;0.10;0.10;;;12.50;99.90;;;;;;4115731;28;20055;-52
2024/03/16 03:55:10;;;;;;;0.00;0.00;;;12.50;99.90;;;;;;4115964;28;20464;-53
2024/03/16 03:57:12;;;;;;;0.00;0.00;;;12.50;99.90;;;;;;4100024;28;20043;-53
2024/03/16 03:59:14;;;;;;;0.00;0.00;;;12.50;99.90;;;;;;4116089;28;20090;-53
2024/03/16 04:01:17;;;;;;;0.45;0.10;;;12.50;99.90;;;;;;4115915;28;20047;-53
2024/03/16 04:03:19;;;;;;;0.00;0.00;;;12.50;99.90;;;;;;4100035;28;20051;-52
2024/03/16 04:05:22;;;;;;;0.10;0.00;;;12.50;99.90;;;;;;4116206;28;20055;-52
2024/03/16 04:07:24;;;;;;;0.00;0.00;;;12.50;99.90;;;;;;4115399;28;20074;-53
2024/03/16 04:09:26;;;;;;;0.00;0.00;;;12.60;99.90;;;;;;4116011;28;20070;-58
2024/03/16 04:11:28;;;;;;;0.00;0.00;;;12.60;99.90;;;;;;4116003;28;20094;-53
2024/03/16 04:13:31;;;;;;;0.00;0.00;;;12.70;99.90;;;;;;4115980;28;20050;-57
2024/03/16 04:15:33;;;;;;;0.00;0.00;;;12.70;99.90;;;;;;4116383;28;20055;-53
2024/03/16 04:17:35;;;;;;;0.00;0.00;;;12.60;99.90;;;;;;4115996;28;20047;-54
2024/03/16 04:19:39;;;;;;;0.08;0.08;;;12.50;99.90;;;;;;4116150;28;20050;-52
2024/03/16 04:21:43;;;;;;;0.00;0.00;;;12.50;99.90;;;;;;4115601;28;20055;-53
2024/03/16 04:23:48;;;;;;;0.00;0.00;;;12.50;99.90;;;;;;4115864;28;20047;-53
2024/03/16 04:25:50;;;;;;;0.00;0.00;;;12.50;99.90;;;;;;4115829;28;20105;-53
2024/03/16 04:27:52;;;;;;;0.00;0.00;;;12.50;99.90;;;;;;4115964;28;20061;-52
2024/03/16 04:29:55;;;;;;;0.10;0.00;;;12.50;99.90;;;;;;4115247;28;20051;-53
2024/03/16 04:31:57;;;;;;;0.00;0.00;;;12.50;99.90;;;;;;4116022;28;20051;-58
2024/03/16 04:33:59;;;;;;;0.00;0.00;;;12.60;99.90;;;;;;4117110;28;20437;-55
2024/03/16 04:36:02;;;;;;;0.35;0.25;;;12.60;99.90;;;;;;4118180;28;20057;-61
2024/03/16 04:38:05;;;;;;;0.00;0.00;;;12.60;99.90;;;;;;4118316;28;20046;-56
2024/03/16 04:40:08;;;;;;;0.20;0.10;;;12.60;99.90;;;;;;4118387;28;20043;-53
2024/03/16 04:42:10;;;;;;;0.10;0.10;;;12.50;99.90;;;;;;4117674;28;20518;-54
2024/03/16 04:44:13;;;;;;;0.00;0.00;;;12.60;99.90;;;;;;4118075;28;20074;-56
2024/03/16 04:46:15;;;;;;;0.00;0.00;;;12.50;99.90;;;;;;4116272;28;20051;-55
2024/03/16 04:48:17;;;;;;;0.00;0.00;;;12.50;99.90;;;;;;4116880;28;20050;-54
2024/03/16 04:50:20;;;;;;;0.00;0.00;;;12.50;99.90;;;;;;4117293;28;20066;-56
2024/03/16 04:52:22;;;;;;;0.00;0.00;;;12.50;99.90;;;;;;4118364;28;20055;-53
2024/03/16 04:54:24;;;;;;;0.00;0.00;;;12.50;99.90;;;;;;4117933;28;20406;-56
2024/03/16 04:56:26;;;;;;;0.00;0.00;;;12.50;99.90;;;;;;4115776;28;20049;-53
2024/03/16 04:58:29;;;;;;;0.05;0.00;;;12.50;99.90;;;;;;4100567;28;20175;-54
2024/03/16 05:00:31;;;;;;;0.00;0.00;;;12.40;99.90;;;;;;4100050;28;20086;-54
2024/03/16 05:02:33;;;;;;;0.40;0.10;;;12.40;99.90;;;;;;4084241;29;20535;-53
2024/03/16 05:04:35;;;;;;;0.00;0.00;;;12.40;99.90;;;;;;4099313;28;20087;-54
2024/03/16 05:06:40;;;;;;;1.10;0.32;;;12.40;99.90;;;;;;4099391;28;20054;-54
2024/03/16 05:08:45;;;;;;;0.00;0.00;;;12.40;99.90;;;;;;4099776;28;20054;-54
2024/03/16 05:10:50;;;;;;;0.00;0.00;;;12.40;99.90;;;;;;4099206;28;20051;-53
2024/03/16 05:12:53;;;;;;;0.00;0.00;;;12.50;99.90;;;;;;4099083;28;20154;-54
2024/03/16 05:14:55;;;;;;;0.00;0.00;;;12.50;99.90;;;;;;4099361;28;20057;-54
2024/03/16 05:16:57;;;;;;;0.00;0.00;;;12.40;99.90;;;;;;4098877;28;20047;-54
2024/03/16 05:19:02;;;;;;;0.00;0.00;;;12.50;99.90;;;;;;4098665;28;20051;-54
2024/03/16 05:21:04;;;;;;;0.15;0.15;;;12.40;99.90;;;;;;4099292;28;20118;-54
2024/03/16 05:23:07;;;;;;;0.00;0.00;;;12.50;99.90;;;;;;4098899;28;20419;-53
2024/03/16 05:25:09;;;;;;;0.00;0.00;;;12.40;99.90;;;;;;4099140;28;20047;-55
2024/03/16 05:27:12;;;;;;;0.30;0.08;;;12.30;99.90;;;;;;4098978;28;20113;-54
2024/03/16 05:29:14;;;;;;;0.10;0.00;;;12.30;99.90;;;;;;4099122;28;20506;-55
2024/03/16 05:31:16;;;;;;;0.20;0.20;;;12.40;99.90;;;;;;4098805;28;20115;-54
2024/03/16 05:33:19;;;;;;;0.20;0.10;;;12.40;99.90;;;;;;4098734;28;20051;-53
2024/03/16 05:35:26;;;;;;;0.00;0.00;;;12.40;99.90;;;;;;4099089;28;20086;-54
2024/03/16 05:37:28;;;;;;;0.00;0.00;;;12.30;99.90;;;;;;4099553;28;20051;-54
2024/03/16 05:39:33;;;;;;;0.03;0.00;;;12.30;99.90;;;;;;4099215;28;20059;-54
2024/03/16 05:41:35;;;;;;;0.20;0.00;;;12.30;99.90;;;;;;4100429;28;20446;-54
2024/03/16 05:43:38;;;;;;;0.00;0.00;;;12.40;99.90;;;;;;4101801;28;20039;-55
2024/03/16 05:45:40;;;;;;;0.05;0.05;;;12.40;99.90;;;;;;4102303;28;20138;-54
2024/03/16 05:47:43;;;;;;;0.10;0.05;;;12.30;99.90;;;;;;4101765;28;20440;-54
2024/03/16 05:49:45;;;;;;;0.15;0.00;;;12.40;99.90;;;;;;4101989;28;20059;-54
2024/03/16 05:51:48;;;;;;;0.05;0.05;;;12.30;99.90;;;;;;4086254;28;20047;-53
2024/03/16 05:53:51;;;;;;;0.00;0.00;;;12.30;99.90;;;;;;4101779;28;20047;-54
2024/03/16 05:55:53;;;;;;;0.40;0.00;;;12.30;99.90;;;;;;4112043;28;20051;-54
2024/03/16 05:57:55;;;;;;;0.08;0.00;;;12.20;99.90;;;;;;4117814;28;20139;-54
2024/03/16 05:59:58;;;;;;;0.35;0.00;;;12.30;99.90;;;;;;4117760;28;20113;-54
2024/03/16 06:02:00;;;;;;;0.32;0.00;;;12.40;99.90;;;;;;4117797;28;20069;-53
2024/03/16 06:04:02;;;;;;;0.20;0.00;;;12.40;99.90;;;;;;4117906;28;20074;-54
2024/03/16 06:06:05;;;;;;;0.00;0.00;;;12.40;99.90;;;;;;4117872;28;20114;-54
2024/03/16 06:08:14;;;;;;;0.20;0.00;;;12.20;99.90;;;;;;4117817;28;20510;-53
2024/03/16 06:10:16;;;;;;;1.17;0.63;;;12.10;99.90;;;;;;4118707;28;20074;-54
2024/03/16 06:12:18;;;;;;;0.00;0.00;;;12.10;99.90;;;;;;4117823;28;20046;-53
2024/03/16 06:14:20;;;;;;;0.00;0.00;;;12.00;99.90;;;;;;4117513;28;20050;-54
2024/03/16 06:16:23;;;;;;;0.30;0.10;;;12.00;99.90;;;;;;4117939;28;20054;-53
2024/03/16 06:18:25;;;;;;;0.10;0.00;;;12.00;99.90;;;;;;4102633;28;20474;-53
2024/03/16 06:20:27;;;;;;;0.00;0.00;;;12.10;99.90;;;;;;4118573;28;20089;-53
2024/03/16 06:22:30;;;;;;;0.30;0.10;;;12.10;99.90;;;;;;4118714;28;20506;-61
2024/03/16 06:24:32;;;;;;;0.00;0.00;;;12.10;99.90;;;;;;4119813;28;20102;-54
2024/03/16 06:26:39;;;;;;;0.00;0.00;;;12.10;99.90;;;;;;4118219;28;20537;-54
2024/03/16 06:28:43;;;;;;;0.00;0.00;;;12.20;99.90;;;;;;4118702;28;20398;-54
2024/03/16 06:30:56;;;;;;;0.20;0.20;;;12.20;99.90;;;;;;4118522;28;20077;-55
2024/03/16 06:33:11;;;;;;;0.00;0.00;;;12.30;99.90;;;;;;4119857;28;20122;-55
2024/03/16 06:35:13;;;;;;;0.00;0.00;;;12.40;99.90;;;;;;4119754;28;20062;-54
2024/03/16 06:37:17;;;;;;;0.08;0.00;;;12.40;99.90;;;;;;4117441;28;20053;-54
2024/03/16 06:39:21;;;;;;;0.00;0.00;;;12.40;99.90;;;;;;4118961;28;20050;-54
2024/03/16 06:41:23;;;;;;;0.05;0.05;;;12.40;99.90;;;;;;4119061;28;20223;-54
2024/03/16 06:43:28;;;;;;;0.00;0.00;;;12.50;99.90;;;;;;4117774;28;20063;-54
2024/03/16 06:45:30;;;;;;;0.45;0.10;;;12.50;99.90;;;;;;4117424;28;20518;-54
2024/03/16 06:47:32;;;;;;;0.00;0.00;;;12.50;99.90;;;;;;4117879;28;20106;-56
2024/03/16 06:49:34;;;;;;;0.00;0.00;;;12.50;99.90;;;;;;4117723;28;20146;-53
2024/03/16 06:51:37;;;;;;;0.13;0.03;;;12.40;99.90;;;;;;4118215;28;20526;-54
2024/03/16 06:53:39;;;;;;;0.40;0.38;;;12.40;99.90;;;;;;4117692;28;20079;-54
2024/03/16 06:55:47;;;;;;;0.00;0.00;;;12.50;99.90;;;;;;4117452;28;20082;-53
2024/03/16 06:57:49;;;;;;;0.10;0.00;;;12.50;99.90;;;;;;4117923;28;20055;-53
2024/03/16 06:59:51;;;;;;;1.15;0.43;;;12.50;99.90;;;;;;4116971;28;20047;-53
2024/03/16 07:01:54;;;;;;;0.00;0.00;;;12.50;99.90;;;;;;4116469;28;20051;-54
2024/03/16 07:03:56;;;;;;;0.03;0.03;;;12.50;99.90;;;;;;4101150;28;20057;-54
2024/03/16 07:05:58;;;;;;;0.80;0.15;;;12.50;99.90;;;;;;4116793;28;20047;-54
2024/03/16 07:08:01;;;;;;;0.00;0.00;;;12.50;99.90;;;;;;4116953;28;20050;-54
2024/03/16 07:10:06;;;;;;;0.08;0.00;;;12.60;99.90;;;;;;4116986;28;20067;-54
2024/03/16 07:12:08;;;;;;;0.75;0.10;;;12.60;99.90;;;;;;4101608;28;20071;-54
2024/03/16 07:14:10;;;;;;;0.63;0.20;;;12.60;99.90;;;;;;4100641;28;20434;-54
2024/03/16 07:16:15;;;;;;;0.00;0.00;;;12.70;99.90;;;;;;4116386;28;20038;-54
2024/03/16 07:18:18;;;;;;;0.95;0.95;;;12.70;99.90;;;;;;4116485;28;20066;-54
2024/03/16 07:20:20;;;;;;;0.03;0.03;;;12.70;99.90;;;;;;4116416;28;20050;-54
2024/03/16 07:22:22;;;;;;;0.35;0.20;;;12.60;99.90;;;;;;4117032;28;20047;-54
2024/03/16 07:24:24;;;;;;;0.55;0.00;;;12.70;99.90;;;;;;4116720;28;20565;-51
2024/03/16 07:26:28;;;;;;;0.28;0.28;;;12.60;99.90;;;;;;4116946;28;20051;-50
2024/03/16 07:28:30;;;;;;;0.17;0.17;;;12.60;99.90;;;;;;4116918;28;20042;-54
2024/03/16 07:30:36;;;;;;;0.28;0.10;;;12.60;99.90;;;;;;4116868;28;20051;-52
2024/03/16 07:32:38;;;;;;;0.00;0.00;;;12.60;99.90;;;;;;4116975;28;20490;-51
2024/03/16 07:34:41;;;;;;;0.00;0.00;;;12.80;99.90;;;;;;4116606;28;20082;-51
2024/03/16 07:36:43;;;;;;;0.13;0.10;;;12.80;99.90;;;;;;4116779;28;20051;-54
2024/03/16 07:38:45;;;;;;;0.35;0.00;;;12.80;99.90;;;;;;4116810;28;20074;-52
2024/03/16 07:40:47;;;;;;;0.10;0.10;;;12.80;99.90;;;;;;4116607;28;20078;-52
2024/03/16 07:42:51;;;;;;;0.60;0.17;;;12.80;99.90;;;;;;4116538;28;20082;-52
2024/03/16 07:44:53;;;;;;;0.35;0.10;;;12.80;99.90;;;;;;4116841;28;20055;-53
2024/03/16 07:46:56;;;;;;;0.15;0.15;;;12.90;99.90;;;;;;4101096;28;20517;-52
2024/03/16 07:49:03;;;;;;;0.63;0.30;;;12.80;99.90;;;;;;4117113;28;20070;-52
2024/03/16 07:51:09;;;;;;;0.38;0.25;;;12.80;99.90;;;;;;4117837;28;20090;-53
2024/03/16 07:53:13;;;;;;;17.35;0.52;;;12.80;99.90;;;;;;4116270;28;20489;-53
2024/03/16 07:55:15;;;;;;;0.10;0.10;;;12.80;99.90;;;;;;4116466;28;20054;-53
2024/03/16 07:57:17;;;;;;;0.08;0.00;;;12.80;99.90;;;;;;4116221;28;20121;-55
2024/03/16 07:59:19;;;;;;;0.03;0.03;;;12.80;99.90;;;;;;4116103;28;20382;-56
2024/03/16 08:01:23;;;;;;;0.17;0.10;;;12.70;99.90;;;;;;4103688;28;20055;-58
2024/03/16 08:03:26;;;;;;;0.10;0.10;;;12.80;99.90;;;;;;4119532;28;20122;-56
2024/03/16 08:05:30;;;;;;;0.00;0.00;;;12.90;99.90;;;;;;4119349;28;20075;-52
2024/03/16 08:07:32;;;;;;;0.37;0.10;;;12.90;99.90;;;;;;4117152;28;20047;-54
2024/03/16 08:09:34;;;;;;;0.00;0.00;;;12.90;99.90;;;;;;4116504;28;20457;-52
2024/03/16 08:11:37;;;;;;;1.65;1.45;;;13.00;99.90;;;;;;4116185;28;20046;-53
2024/03/16 08:13:40;;;;;;;3.72;0.10;;;13.10;99.90;;;;;;4115839;28;20429;-53
2024/03/16 08:15:42;;;;;;;0.05;0.05;;;13.10;99.90;;;;;;4116187;28;20046;-61
2024/03/16 08:17:48;;;;;;;0.30;0.10;;;13.00;99.90;;;;;;4116317;28;20450;-54
2024/03/16 08:19:51;;;;;;;0.20;0.20;;;13.20;99.90;;;;;;4116045;28;20074;-53
2024/03/16 08:21:53;;;;;;;0.28;0.13;;;13.10;99.90;;;;;;4099864;28;20139;-53
2024/03/16 08:23:56;;;;;;;0.40;0.40;;;13.10;99.90;;;;;;4100198;28;20058;-54
2024/03/16 08:25:58;;;;;;;0.20;0.20;;;13.10;99.90;;;;;;4115684;28;20090;-54
2024/03/16 08:28:01;;;;;;;0.20;0.10;;;13.30;99.90;;;;;;4115495;28;20058;-55
2024/03/16 08:30:04;;;;;;;0.10;0.05;;;13.30;99.90;;;;;;4115981;28;20055;-54
2024/03/16 08:32:15;;;;;;;0.25;0.25;;;13.40;99.90;;;;;;4115853;28;20050;-55
2024/03/16 08:34:17;;;;;;;0.15;0.05;;;13.40;99.90;;;;;;4118000;28;20047;-53
2024/03/16 08:36:20;;;;;;;0.20;0.15;;;13.60;99.90;;;;;;4116576;28;20047;-53
2024/03/16 08:38:24;;;;;;;0.10;0.10;;;13.60;99.90;;;;;;4116492;28;20047;-55
2024/03/16 08:40:26;;;;;;;0.10;0.10;;;13.60;99.90;;;;;;4117402;28;20066;-55
2024/03/16 08:42:28;;;;;;;0.20;0.13;;;13.50;99.00;;;;;;4115398;28;20126;-55
2024/03/16 08:44:30;;;;;;;1.38;0.77;;;13.50;99.00;;;;;;4115560;28;20125;-54
2024/03/16 08:46:33;;;;;;;0.22;0.10;;;13.60;98.90;;;;;;4115613;28;20051;-56
2024/03/16 08:48:35;;;;;;;0.00;0.00;;;13.50;99.10;;;;;;4115429;28;20055;-53
2024/03/16 08:50:38;;;;;;;0.08;0.08;;;13.50;99.80;;;;;;4115230;28;20050;-54
2024/03/16 08:52:40;;;;;;;0.30;0.10;;;13.40;99.60;;;;;;4115292;28;20042;-54
2024/03/16 08:54:42;;;;;;;0.10;0.10;;;13.50;99.90;;;;;;4114987;28;20098;-54
2024/03/16 08:56:45;;;;;;;4.95;0.25;;;13.50;99.90;;;;;;4114761;28;20055;-54
2024/03/16 08:58:48;;;;;;;0.10;0.10;;;13.70;99.90;;;;;;4115212;28;20055;-54
2024/03/16 09:00:50;;;;;;;0.17;0.05;;;13.80;99.90;;;;;;4131230;28;20433;-54
2024/03/16 09:02:54;;;;;;;0.13;0.13;;;13.70;99.90;;;;;;4099045;28;20051;-54
2024/03/16 09:04:56;;;;;;;0.10;0.00;;;13.80;99.90;;;;;;4115461;28;20149;-55
2024/03/16 09:06:58;;;;;;;0.20;0.20;;;13.80;99.20;;;;;;4099201;28;20058;-54
2024/03/16 09:09:00;;;;;;;0.73;0.30;;;13.90;99.20;;;;;;4115542;28;20491;-53
2024/03/16 09:11:03;;;;;;;0.10;0.10;;;13.90;99.00;;;;;;4115678;28;20513;-54
2024/03/16 09:13:05;;;;;;;0.32;0.15;;;14.00;99.30;;;;;;4116300;28;20105;-53
2024/03/16 09:15:08;;;;;;;0.38;0.10;;;13.90;98.60;;;;;;4115334;28;20141;-54
2024/03/16 09:17:11;;;;;;;0.90;0.10;;;13.90;98.70;;;;;;4114875;28;20050;-54
2024/03/16 09:19:13;;;;;;;0.10;0.10;;;14.00;99.00;;;;;;4115189;28;20474;-54
2024/03/16 09:21:16;;;;;;;0.13;0.13;;;14.10;99.10;;;;;;4115228;28;20398;-55
2024/03/16 09:23:19;;;;;;;0.30;0.10;;;14.10;99.10;;;;;;4114934;28;20166;-54
2024/03/16 09:25:23;;;;;;;0.00;0.00;;;14.30;98.90;;;;;;4115195;28;20066;-54
2024/03/16 09:27:26;;;;;;;0.45;0.20;;;14.40;99.00;;;;;;4115193;28;20113;-55
2024/03/16 09:29:29;;;;;;;1.02;0.20;;;14.50;98.70;;;;;;4114921;28;20043;-54
2024/03/16 09:31:31;;;;;;;0.95;0.10;;;14.60;98.00;;;;;;4114928;28;20055;-54
2024/03/16 09:33:33;;;;;;;2.28;0.40;;;14.60;97.70;;;;;;4115034;28;20047;-54
2024/03/16 09:35:35;;;;;;;1.00;0.35;;;14.40;97.10;;;;;;4114876;28;20585;-54
2024/03/16 09:37:38;;;;;;;1.30;0.30;;;14.40;98.10;;;;;;4115260;28;20046;-54
2024/03/16 09:39:42;;;;;;;1.65;0.77;;;14.50;97.90;;;;;;4114469;28;20050;-54
2024/03/16 09:41:46;;;;;;;0.28;0.15;;;14.50;98.20;;;;;;4115048;28;20109;-54
2024/03/16 09:43:48;;;;;;;0.20;0.20;;;14.40;97.50;;;;;;4115278;28;20054;-55
2024/03/16 09:45:51;;;;;;;1.23;0.30;;;14.40;97.50;;;;;;4114560;28;20042;-55
2024/03/16 09:47:52;;;;;;;0.10;0.10;;;14.50;97.00;;;;;;4099259;28;20051;-55
2024/03/16 09:49:54;;;;;;;1.90;0.13;;;14.60;95.80;;;;;;4114948;28;20454;-56
2024/03/16 09:51:55;;;;;;;0.25;0.20;;;14.40;96.40;;;;;;4098902;28;20384;-54
2024/03/16 09:53:57;;;;;;;0.57;0.20;;;14.40;95.40;;;;;;4098629;29;20054;-54
2024/03/16 09:55:59;;;;;;;0.05;0.03;;;14.30;95.40;;;;;;4086292;28;20047;-53
2024/03/16 09:58:00;;;;;;;0.30;0.17;;;14.60;95.10;;;;;;4083626;28;20513;-56
2024/03/16 10:00:04;;;;;;;0.63;0.20;;;14.60;95.00;;;;;;4082485;29;20051;-54
2024/03/16 10:02:08;;;;;;;0.10;0.10;;;14.80;95.30;;;;;;4099322;28;20047;-54
2024/03/16 10:04:10;;;;;;;2.42;1.02;;;14.80;95.10;;;;;;4097706;28;20047;-54
2024/03/16 10:06:15;;;;;;;0.25;0.25;;;14.80;94.60;;;;;;4035996;29;20477;-55
2024/03/16 10:08:17;;;;;;;0.50;0.25;;;15.00;94.10;;;;;;4067584;28;20048;-54
2024/03/16 10:10:19;;;;;;;0.17;0.10;;;15.00;94.70;;;;;;4063160;29;20089;-54
2024/03/16 10:12:21;;;;;;;0.10;0.10;;;15.00;94.80;;;;;;4077512;28;20047;-54
2024/03/16 10:14:22;;;;;;;1.55;0.98;;;15.10;94.90;;;;;;4080095;28;20523;-55
2024/03/16 10:16:26;;;;;;;0.65;0.20;;;15.20;94.60;;;;;;4098590;29;20074;-51
2024/03/16 10:18:28;;;;;;;2.13;0.08;;;15.30;94.00;;;;;;4083465;28;20059;-52
2024/03/16 10:20:29;;;;;;;0.10;0.10;;;15.20;94.30;;;;;;4098817;29;20446;-52
2024/03/16 10:22:31;;;;;;;0.25;0.15;;;15.30;94.80;;;;;;4098387;28;20155;-53
2024/03/16 10:24:33;;;;;;;2.25;0.15;;;15.10;93.50;;;;;;4098285;28;20088;-52
2024/03/16 10:26:35;;;;;;;0.45;0.20;;;15.00;93.60;;;;;;4088618;28;20051;-52
2024/03/16 10:28:36;;;;;;;0.65;0.20;;;15.10;93.60;;;;;;4113425;28;20047;-52
2024/03/16 10:30:37;;;;;;;0.60;0.32;;;15.10;93.70;;;;;;4086961;29;20052;-51
2024/03/16 10:32:41;;;;;;;1.00;0.40;;;15.10;93.10;;;;;;4086504;29;20100;-53
2024/03/16 10:34:42;;;;;;;0.10;0.00;;;15.20;93.80;;;;;;4101589;28;20121;-62
2024/03/16 10:36:43;;;;;;;0.30;0.20;;;15.30;93.40;;;;;;4101322;29;20415;-54
2024/03/16 10:38:45;;;;;;;0.40;0.20;;;15.20;92.60;;;;;;4068908;29;20060;-58
2024/03/16 10:40:46;;;;;;;2.20;1.15;;;15.20;93.00;;;;;;4102678;28;20047;-61